sensor_id;sensor_type;location;lat;lon;timestamp;pressure;altitude;pressure_sealevel;temperature;humidity
69219;BME280;56232;53.384;-2.732;2022-11-15T00:01:57;99610.39;;;7.41;43.78
69219;BME280;56232;53.384;-2.732;2022-11-15T00:04:23;99602.71;;;7.90;43.80
69219;BME280;56232;53.384;-2.732;2022-11-15T00:06:49;99600.10;;;7.90;43.74
69219;BME280;56232;53.384;-2.732;2022-11-15T00:09:14;99592.56;;;7.41;43.63
69219;BME280;56232;53.384;-2.732;2022-11-15T00:11:40;99580.67;;;7.39;43.54
69219;BME280;56232;53.384;-2.732;2022-11-15T00:14:06;99576.60;;;7.82;43.61
69219;BME280;56232;53.384;-2.732;2022-11-15T00:16:31;99569.13;;;8.42;43.63
69219;BME280;56232;53.384;-2.732;2022-11-15T00:18:57;99567.65;;;7.23;43.65
69219;BME280;56232;53.384;-2.732;2022-11-15T00:21:22;99565.28;;;7.20;43.69
69219;BME280;56232;53.384;-2.732;2022-11-15T00:23:48;99559.76;;;7.62;43.72
69219;BME280;56232;53.384;-2.732;2022-11-15T00:26:14;99556.86;;;8.06;43.93
69219;BME280;56232;53.384;-2.732;2022-11-15T00:28:40;99555.61;;;7.47;43.90
69219;BME280;56232;53.384;-2.732;2022-11-15T00:31:08;99549.64;;;7.39;44.05
69219;BME280;56232;53.384;-2.732;2022-11-15T00:33:31;99549.44;;;7.50;43.94
69219;BME280;56232;53.384;-2.732;2022-11-15T00:36:00;99542.95;;;7.50;43.94
69219;BME280;56232;53.384;-2.732;2022-11-15T00:38:22;99535.17;;;7.43;44.04
69219;BME280;56232;53.384;-2.732;2022-11-15T00:40:47;99530.76;;;7.50;43.95
69219;BME280;56232;53.384;-2.732;2022-11-15T00:43:13;99517.93;;;7.48;44.00
69219;BME280;56232;53.384;-2.732;2022-11-15T00:45:39;99516.88;;;7.58;43.93
69219;BME280;56232;53.384;-2.732;2022-11-15T00:48:05;99525.60;;;6.64;43.90
69219;BME280;56232;53.384;-2.732;2022-11-15T00:50:30;99516.26;;;7.87;43.63
69219;BME280;56232;53.384;-2.732;2022-11-15T00:52:56;99511.69;;;7.96;43.51
69219;BME280;56232;53.384;-2.732;2022-11-15T00:55:20;99504.90;;;8.00;43.55
69219;BME280;56232;53.384;-2.732;2022-11-15T00:57:46;99496.66;;;7.67;43.42
69219;BME280;56232;53.384;-2.732;2022-11-15T01:00:13;99491.67;;;8.29;43.25
69219;BME280;56232;53.384;-2.732;2022-11-15T01:02:42;99491.94;;;7.40;43.15
69219;BME280;56232;53.384;-2.732;2022-11-15T01:05:05;99480.35;;;8.42;43.05
69219;BME280;56232;53.384;-2.732;2022-11-15T01:07:34;99467.20;;;8.05;42.85
69219;BME280;56232;53.384;-2.732;2022-11-15T01:09:54;99476.77;;;7.89;42.91
69219;BME280;56232;53.384;-2.732;2022-11-15T01:12:20;99461.94;;;8.29;43.14
69219;BME280;56232;53.384;-2.732;2022-11-15T01:14:46;99456.01;;;7.77;43.05
69219;BME280;56232;53.384;-2.732;2022-11-15T01:17:13;99452.83;;;8.27;43.17
69219;BME280;56232;53.384;-2.732;2022-11-15T01:19:37;99448.03;;;8.01;43.00
69219;BME280;56232;53.384;-2.732;2022-11-15T01:22:03;99436.19;;;8.08;42.84
69219;BME280;56232;53.384;-2.732;2022-11-15T01:24:29;99425.19;;;8.56;42.81
69219;BME280;56232;53.384;-2.732;2022-11-15T01:26:54;99420.97;;;7.59;42.80
69219;BME280;56232;53.384;-2.732;2022-11-15T01:29:20;99425.58;;;8.10;42.78
69219;BME280;56232;53.384;-2.732;2022-11-15T01:31:46;99422.41;;;8.19;42.80
69219;BME280;56232;53.384;-2.732;2022-11-15T01:34:13;99412.07;;;7.75;42.80
69219;BME280;56232;53.384;-2.732;2022-11-15T01:36:37;99410.42;;;8.30;42.84
69219;BME280;56232;53.384;-2.732;2022-11-15T01:39:02;99406.01;;;8.58;42.58
69219;BME280;56232;53.384;-2.732;2022-11-15T01:41:30;99391.09;;;8.13;42.57
69219;BME280;56232;53.384;-2.732;2022-11-15T01:43:55;99379.93;;;8.62;42.61
69219;BME280;56232;53.384;-2.732;2022-11-15T01:46:27;99381.92;;;8.21;42.55
69219;BME280;56232;53.384;-2.732;2022-11-15T01:48:45;99372.18;;;8.26;42.58
69219;BME280;56232;53.384;-2.732;2022-11-15T01:51:13;99375.23;;;8.95;42.36
69219;BME280;56232;53.384;-2.732;2022-11-15T01:53:38;99360.96;;;8.35;42.67
69219;BME280;56232;53.384;-2.732;2022-11-15T01:56:05;99359.19;;;8.22;43.08
69219;BME280;56232;53.384;-2.732;2022-11-15T01:58:28;99354.20;;;8.68;43.87
69219;BME280;56232;53.384;-2.732;2022-11-15T02:00:54;99345.38;;;8.24;44.91
69219;BME280;56232;53.384;-2.732;2022-11-15T02:03:20;99337.70;;;8.14;45.46
69219;BME280;56232;53.384;-2.732;2022-11-15T02:05:45;99330.43;;;7.28;45.77
69219;BME280;56232;53.384;-2.732;2022-11-15T02:08:12;99328.92;;;7.70;45.87
69219;BME280;56232;53.384;-2.732;2022-11-15T02:10:36;99321.77;;;7.82;45.80
69219;BME280;56232;53.384;-2.732;2022-11-15T02:13:02;99319.57;;;7.91;45.88
69219;BME280;56232;53.384;-2.732;2022-11-15T02:15:33;99309.08;;;7.84;45.88
69219;BME280;56232;53.384;-2.732;2022-11-15T02:18:02;99302.68;;;7.90;45.81
69219;BME280;56232;53.384;-2.732;2022-11-15T02:22:54;99291.37;;;8.06;45.90
69219;BME280;56232;53.384;-2.732;2022-11-15T02:25:23;99284.62;;;7.60;46.11
69219;BME280;56232;53.384;-2.732;2022-11-15T02:32:30;99273.71;;;7.70;45.73
69219;BME280;56232;53.384;-2.732;2022-11-15T02:34:56;99269.60;;;8.51;45.60
69219;BME280;56232;53.384;-2.732;2022-11-15T02:37:23;99261.97;;;8.03;45.29
69219;BME280;56232;53.384;-2.732;2022-11-15T02:39:49;99256.90;;;7.59;45.53
69219;BME280;56232;53.384;-2.732;2022-11-15T02:42:13;99259.48;;;8.70;45.40
69219;BME280;56232;53.384;-2.732;2022-11-15T02:44:38;99250.61;;;7.65;45.20
69219;BME280;56232;53.384;-2.732;2022-11-15T02:47:02;99243.99;;;8.68;45.32
69219;BME280;56232;53.384;-2.732;2022-11-15T02:49:28;99234.99;;;8.25;45.14
69219;BME280;56232;53.384;-2.732;2022-11-15T02:51:52;99226.20;;;8.21;45.06
69219;BME280;56232;53.384;-2.732;2022-11-15T02:54:20;99220.29;;;8.20;45.00
69219;BME280;56232;53.384;-2.732;2022-11-15T02:56:45;99216.05;;;7.83;45.12
69219;BME280;56232;53.384;-2.732;2022-11-15T02:59:17;99213.64;;;8.18;44.62
69219;BME280;56232;53.384;-2.732;2022-11-15T03:01:39;99207.89;;;8.20;44.60
69219;BME280;56232;53.384;-2.732;2022-11-15T03:04:04;99211.07;;;8.28;44.49
69219;BME280;56232;53.384;-2.732;2022-11-15T03:06:32;99205.09;;;8.38;44.27
69219;BME280;56232;53.384;-2.732;2022-11-15T03:08:57;99202.53;;;8.32;44.27
69219;BME280;56232;53.384;-2.732;2022-11-15T03:11:18;99198.10;;;8.31;44.22
69219;BME280;56232;53.384;-2.732;2022-11-15T03:13:47;99190.27;;;8.39;44.15
69219;BME280;56232;53.384;-2.732;2022-11-15T03:16:12;99186.67;;;8.20;44.44
69219;BME280;56232;53.384;-2.732;2022-11-15T03:18:35;99176.20;;;8.65;44.79
69219;BME280;56232;53.384;-2.732;2022-11-15T03:21:00;99170.42;;;8.41;44.34
69219;BME280;56232;53.384;-2.732;2022-11-15T03:23:25;99156.89;;;8.60;44.32
69219;BME280;56232;53.384;-2.732;2022-11-15T03:25:51;99152.12;;;8.88;43.92
69219;BME280;56232;53.384;-2.732;2022-11-15T03:28:21;99142.79;;;8.95;43.90
69219;BME280;56232;53.384;-2.732;2022-11-15T03:30:42;99135.86;;;9.01;43.91
69219;BME280;56232;53.384;-2.732;2022-11-15T03:33:08;99132.27;;;9.04;43.57
69219;BME280;56232;53.384;-2.732;2022-11-15T03:35:36;99134.61;;;8.35;43.73
69219;BME280;56232;53.384;-2.732;2022-11-15T03:42:56;99119.43;;;9.49;43.35
69219;BME280;56232;53.384;-2.732;2022-11-15T03:45:17;99115.84;;;9.43;43.41
69219;BME280;56232;53.384;-2.732;2022-11-15T03:47:44;99108.86;;;9.31;43.73
69219;BME280;56232;53.384;-2.732;2022-11-15T03:50:09;99113.39;;;9.39;43.90
69219;BME280;56232;53.384;-2.732;2022-11-15T03:52:34;99105.54;;;9.28;44.20
69219;BME280;56232;53.384;-2.732;2022-11-15T03:55:00;99090.63;;;9.22;44.18
69219;BME280;56232;53.384;-2.732;2022-11-15T03:57:24;99093.19;;;9.13;44.45
69219;BME280;56232;53.384;-2.732;2022-11-15T03:59:49;99088.26;;;9.07;44.82
69219;BME280;56232;53.384;-2.732;2022-11-15T04:02:15;99088.40;;;8.98;44.84
69219;BME280;56232;53.384;-2.732;2022-11-15T04:04:41;99078.63;;;8.98;44.73
69219;BME280;56232;53.384;-2.732;2022-11-15T04:07:06;99074.51;;;8.84;45.39
69219;BME280;56232;53.384;-2.732;2022-11-15T04:09:32;99070.11;;;8.69;45.51
69219;BME280;56232;53.384;-2.732;2022-11-15T04:11:57;99068.54;;;8.51;46.06
69219;BME280;56232;53.384;-2.732;2022-11-15T04:14:23;99055.11;;;9.21;46.87
69219;BME280;56232;53.384;-2.732;2022-11-15T04:16:49;99055.80;;;8.52;47.29
69219;BME280;56232;53.384;-2.732;2022-11-15T04:19:15;99055.70;;;7.91;47.34
69219;BME280;56232;53.384;-2.732;2022-11-15T04:21:40;99044.96;;;8.42;47.29
69219;BME280;56232;53.384;-2.732;2022-11-15T04:24:06;99043.86;;;8.49;47.37
69219;BME280;56232;53.384;-2.732;2022-11-15T04:26:31;99044.70;;;8.10;47.39
69219;BME280;56232;53.384;-2.732;2022-11-15T04:28:57;99024.94;;;8.69;47.12
69219;BME280;56232;53.384;-2.732;2022-11-15T04:31:22;99019.54;;;8.12;47.13
69219;BME280;56232;53.384;-2.732;2022-11-15T04:33:48;99022.83;;;7.99;46.96
69219;BME280;56232;53.384;-2.732;2022-11-15T04:36:13;99022.76;;;8.48;47.01
69219;BME280;56232;53.384;-2.732;2022-11-15T04:38:39;99019.74;;;8.17;47.51
69219;BME280;56232;53.384;-2.732;2022-11-15T04:41:05;99015.16;;;8.13;47.40
69219;BME280;56232;53.384;-2.732;2022-11-15T04:43:30;99014.03;;;7.67;47.51
69219;BME280;56232;53.384;-2.732;2022-11-15T04:45:56;99017.78;;;8.59;47.44
69219;BME280;56232;53.384;-2.732;2022-11-15T04:48:22;99023.39;;;7.92;47.86
69219;BME280;56232;53.384;-2.732;2022-11-15T04:50:48;99027.80;;;7.78;48.61
69219;BME280;56232;53.384;-2.732;2022-11-15T04:53:13;99021.64;;;8.44;48.32
69219;BME280;56232;53.384;-2.732;2022-11-15T04:55:39;99015.31;;;8.53;47.80
69219;BME280;56232;53.384;-2.732;2022-11-15T04:58:04;99017.63;;;7.96;48.26
69219;BME280;56232;53.384;-2.732;2022-11-15T05:00:29;99005.92;;;8.12;48.24
69219;BME280;56232;53.384;-2.732;2022-11-15T05:02:55;98998.40;;;7.41;48.65
69219;BME280;56232;53.384;-2.732;2022-11-15T05:05:21;98990.21;;;7.96;48.43
69219;BME280;56232;53.384;-2.732;2022-11-15T05:07:46;98978.37;;;8.37;48.47
69219;BME280;56232;53.384;-2.732;2022-11-15T05:10:13;98966.08;;;7.97;48.60
69219;BME280;56232;53.384;-2.732;2022-11-15T05:12:38;98971.50;;;8.36;48.09
69219;BME280;56232;53.384;-2.732;2022-11-15T05:15:04;98970.73;;;8.19;48.93
69219;BME280;56232;53.384;-2.732;2022-11-15T05:17:29;98964.65;;;7.76;48.71
69219;BME280;56232;53.384;-2.732;2022-11-15T05:19:55;98967.71;;;8.36;48.98
69219;BME280;56232;53.384;-2.732;2022-11-15T05:22:21;98960.61;;;8.53;48.74
69219;BME280;56232;53.384;-2.732;2022-11-15T05:24:46;98956.50;;;7.80;48.70
69219;BME280;56232;53.384;-2.732;2022-11-15T05:27:13;98954.02;;;8.93;48.51
69219;BME280;56232;53.384;-2.732;2022-11-15T05:29:37;98945.55;;;8.36;48.57
69219;BME280;56232;53.384;-2.732;2022-11-15T05:32:03;98945.73;;;8.02;48.32
69219;BME280;56232;53.384;-2.732;2022-11-15T05:34:29;98946.37;;;8.25;48.50
69219;BME280;56232;53.384;-2.732;2022-11-15T05:36:54;98940.96;;;8.84;48.08
69219;BME280;56232;53.384;-2.732;2022-11-15T05:39:19;98940.10;;;8.83;48.29
69219;BME280;56232;53.384;-2.732;2022-11-15T05:41:47;98934.68;;;7.77;48.42
69219;BME280;56232;53.384;-2.732;2022-11-15T05:44:13;98930.71;;;8.47;48.35
69219;BME280;56232;53.384;-2.732;2022-11-15T05:46:37;98924.64;;;8.46;47.71
69219;BME280;56232;53.384;-2.732;2022-11-15T05:49:03;98916.25;;;9.22;48.24
69219;BME280;56232;53.384;-2.732;2022-11-15T05:51:28;98913.92;;;8.17;48.72
69219;BME280;56232;53.384;-2.732;2022-11-15T05:53:53;98907.53;;;8.42;48.13
69219;BME280;56232;53.384;-2.732;2022-11-15T05:56:19;98905.83;;;8.55;48.22
69219;BME280;56232;53.384;-2.732;2022-11-15T05:58:44;98901.85;;;9.01;47.86
69219;BME280;56232;53.384;-2.732;2022-11-15T06:01:11;98899.45;;;8.50;47.39
69219;BME280;56232;53.384;-2.732;2022-11-15T06:03:35;98902.13;;;8.36;48.03
69219;BME280;56232;53.384;-2.732;2022-11-15T06:06:00;98890.03;;;8.40;48.21
69219;BME280;56232;53.384;-2.732;2022-11-15T06:08:25;98890.74;;;8.36;48.19
69219;BME280;56232;53.384;-2.732;2022-11-15T06:10:51;98883.54;;;8.32;48.88
69219;BME280;56232;53.384;-2.732;2022-11-15T06:13:17;98879.29;;;8.27;48.98
69219;BME280;56232;53.384;-2.732;2022-11-15T06:15:42;98877.25;;;8.46;48.90
69219;BME280;56232;53.384;-2.732;2022-11-15T06:18:08;98869.99;;;8.39;49.12
69219;BME280;56232;53.384;-2.732;2022-11-15T06:20:34;98866.95;;;8.35;49.12
69219;BME280;56232;53.384;-2.732;2022-11-15T06:23:01;98859.71;;;8.78;48.87
69219;BME280;56232;53.384;-2.732;2022-11-15T06:25:26;98856.49;;;8.34;49.12
69219;BME280;56232;53.384;-2.732;2022-11-15T06:27:51;98856.80;;;8.32;49.37
69219;BME280;56232;53.384;-2.732;2022-11-15T06:30:17;98851.53;;;9.19;49.89
69219;BME280;56232;53.384;-2.732;2022-11-15T06:32:42;98848.11;;;8.63;49.96
69219;BME280;56232;53.384;-2.732;2022-11-15T06:35:08;98849.79;;;8.32;50.16
69219;BME280;56232;53.384;-2.732;2022-11-15T06:37:34;98846.82;;;8.21;49.80
69219;BME280;56232;53.384;-2.732;2022-11-15T06:39:59;98834.23;;;8.10;50.37
69219;BME280;56232;53.384;-2.732;2022-11-15T06:42:25;98830.10;;;8.14;50.67
69219;BME280;56232;53.384;-2.732;2022-11-15T06:44:50;98831.13;;;8.26;50.66
69219;BME280;56232;53.384;-2.732;2022-11-15T06:47:16;98828.18;;;8.23;50.73
69219;BME280;56232;53.384;-2.732;2022-11-15T06:49:41;98829.61;;;8.16;50.56
69219;BME280;56232;53.384;-2.732;2022-11-15T06:52:07;98822.49;;;8.13;50.22
69219;BME280;56232;53.384;-2.732;2022-11-15T06:54:33;98820.14;;;8.11;50.48
69219;BME280;56232;53.384;-2.732;2022-11-15T06:56:58;98812.25;;;8.13;50.83
69219;BME280;56232;53.384;-2.732;2022-11-15T06:59:24;98801.66;;;8.77;51.02
69219;BME280;56232;53.384;-2.732;2022-11-15T07:01:50;98800.35;;;8.37;51.55
69219;BME280;56232;53.384;-2.732;2022-11-15T07:04:15;98797.06;;;8.66;51.54
69219;BME280;56232;53.384;-2.732;2022-11-15T07:06:41;98797.76;;;7.93;52.10
69219;BME280;56232;53.384;-2.732;2022-11-15T07:09:07;98795.73;;;7.44;52.49
69219;BME280;56232;53.384;-2.732;2022-11-15T07:11:33;98795.09;;;8.17;51.80
69219;BME280;56232;53.384;-2.732;2022-11-15T07:13:59;98796.62;;;8.70;51.63
69219;BME280;56232;53.384;-2.732;2022-11-15T07:16:24;98800.04;;;8.21;51.76
69219;BME280;56232;53.384;-2.732;2022-11-15T07:18:49;98792.55;;;8.12;51.92
69219;BME280;56232;53.384;-2.732;2022-11-15T07:21:15;98791.85;;;8.65;52.44
69219;BME280;56232;53.384;-2.732;2022-11-15T07:23:41;98786.70;;;8.08;52.44
69219;BME280;56232;53.384;-2.732;2022-11-15T07:26:07;98784.78;;;8.17;52.95
69219;BME280;56232;53.384;-2.732;2022-11-15T07:28:32;98781.65;;;8.05;52.74
69219;BME280;56232;53.384;-2.732;2022-11-15T07:30:57;98778.10;;;8.52;52.90
69219;BME280;56232;53.384;-2.732;2022-11-15T07:33:23;98771.90;;;8.51;53.25
69219;BME280;56232;53.384;-2.732;2022-11-15T07:35:49;98762.47;;;8.04;53.23
69219;BME280;56232;53.384;-2.732;2022-11-15T07:38:15;98761.22;;;8.26;54.41
69219;BME280;56232;53.384;-2.732;2022-11-15T07:40:40;98772.15;;;7.78;54.42
69219;BME280;56232;53.384;-2.732;2022-11-15T07:43:06;98760.57;;;7.80;54.57
69219;BME280;56232;53.384;-2.732;2022-11-15T07:45:32;98758.02;;;8.21;54.53
69219;BME280;56232;53.384;-2.732;2022-11-15T07:47:56;98753.72;;;8.05;55.18
69219;BME280;56232;53.384;-2.732;2022-11-15T07:50:22;98755.71;;;7.97;55.29
69219;BME280;56232;53.384;-2.732;2022-11-15T07:52:51;98749.17;;;8.50;55.44
69219;BME280;56232;53.384;-2.732;2022-11-15T07:55:14;98750.60;;;8.61;55.71
69219;BME280;56232;53.384;-2.732;2022-11-15T07:57:39;98752.96;;;8.44;55.26
69219;BME280;56232;53.384;-2.732;2022-11-15T08:00:06;98747.52;;;8.48;55.10
69219;BME280;56232;53.384;-2.732;2022-11-15T08:02:30;98737.22;;;8.56;55.25
69219;BME280;56232;53.384;-2.732;2022-11-15T08:04:56;98735.11;;;8.13;54.84
69219;BME280;56232;53.384;-2.732;2022-11-15T08:07:22;98729.10;;;9.18;54.96
69219;BME280;56232;53.384;-2.732;2022-11-15T08:09:47;98722.22;;;8.65;55.16
69219;BME280;56232;53.384;-2.732;2022-11-15T08:12:14;98722.65;;;8.89;55.30
69219;BME280;56232;53.384;-2.732;2022-11-15T08:14:39;98720.90;;;9.43;55.09
69219;BME280;56232;53.384;-2.732;2022-11-15T08:17:04;98711.91;;;8.88;54.84
69219;BME280;56232;53.384;-2.732;2022-11-15T08:19:30;98711.10;;;8.46;54.70
69219;BME280;56232;53.384;-2.732;2022-11-15T08:21:55;98703.64;;;8.94;54.69
69219;BME280;56232;53.384;-2.732;2022-11-15T08:24:21;98702.69;;;8.32;54.83
69219;BME280;56232;53.384;-2.732;2022-11-15T08:26:47;98700.62;;;8.84;55.01
69219;BME280;56232;53.384;-2.732;2022-11-15T08:29:13;98700.64;;;9.52;55.24
69219;BME280;56232;53.384;-2.732;2022-11-15T08:31:38;98697.00;;;8.73;54.94
69219;BME280;56232;53.384;-2.732;2022-11-15T08:34:04;98699.72;;;8.70;54.94
69219;BME280;56232;53.384;-2.732;2022-11-15T08:36:29;98693.35;;;9.09;54.94
69219;BME280;56232;53.384;-2.732;2022-11-15T08:38:55;98686.56;;;8.97;54.90
69219;BME280;56232;53.384;-2.732;2022-11-15T08:41:25;98681.53;;;9.18;55.48
69219;BME280;56232;53.384;-2.732;2022-11-15T08:43:46;98673.06;;;8.21;55.77
69219;BME280;56232;53.384;-2.732;2022-11-15T08:46:13;98666.03;;;8.50;56.02
69219;BME280;56232;53.384;-2.732;2022-11-15T08:48:38;98664.37;;;9.08;55.94
69219;BME280;56232;53.384;-2.732;2022-11-15T08:51:03;98659.92;;;8.07;56.34
69219;BME280;56232;53.384;-2.732;2022-11-15T08:53:29;98660.47;;;8.61;56.19
69219;BME280;56232;53.384;-2.732;2022-11-15T08:55:54;98656.20;;;9.10;56.12
69219;BME280;56232;53.384;-2.732;2022-11-15T08:58:20;98650.72;;;8.89;56.53
69219;BME280;56232;53.384;-2.732;2022-11-15T09:00:46;98644.06;;;8.45;56.51
69219;BME280;56232;53.384;-2.732;2022-11-15T09:03:12;98638.42;;;8.95;56.62
69219;BME280;56232;53.384;-2.732;2022-11-15T09:05:37;98630.16;;;8.59;56.85
69219;BME280;56232;53.384;-2.732;2022-11-15T09:08:03;98629.64;;;8.40;56.24
69219;BME280;56232;53.384;-2.732;2022-11-15T09:10:29;98628.32;;;8.97;56.54
69219;BME280;56232;53.384;-2.732;2022-11-15T09:12:56;98631.55;;;8.82;56.45
69219;BME280;56232;53.384;-2.732;2022-11-15T09:15:20;98625.71;;;8.95;55.50
69219;BME280;56232;53.384;-2.732;2022-11-15T09:17:45;98624.37;;;8.90;55.87
69219;BME280;56232;53.384;-2.732;2022-11-15T09:20:13;98614.14;;;9.95;55.73
69219;BME280;56232;53.384;-2.732;2022-11-15T09:22:37;98613.96;;;9.07;56.45
69219;BME280;56232;53.384;-2.732;2022-11-15T09:25:03;98610.58;;;9.42;55.42
69219;BME280;56232;53.384;-2.732;2022-11-15T09:27:29;98608.92;;;8.23;55.75
69219;BME280;56232;53.384;-2.732;2022-11-15T09:29:54;98606.72;;;9.38;56.03
69219;BME280;56232;53.384;-2.732;2022-11-15T09:32:19;98603.01;;;9.42;55.87
69219;BME280;56232;53.384;-2.732;2022-11-15T09:34:45;98603.80;;;8.40;55.71
69219;BME280;56232;53.384;-2.732;2022-11-15T09:37:11;98606.31;;;9.60;55.96
69219;BME280;56232;53.384;-2.732;2022-11-15T09:39:36;98604.24;;;9.10;56.02
69219;BME280;56232;53.384;-2.732;2022-11-15T09:42:10;98598.27;;;9.75;55.55
69219;BME280;56232;53.384;-2.732;2022-11-15T09:44:42;98595.44;;;9.71;55.91
69219;BME280;56232;53.384;-2.732;2022-11-15T09:47:00;98595.41;;;9.86;55.74
69219;BME280;56232;53.384;-2.732;2022-11-15T09:49:19;98588.96;;;10.39;55.66
69219;BME280;56232;53.384;-2.732;2022-11-15T09:51:47;98591.37;;;8.86;55.47
69219;BME280;56232;53.384;-2.732;2022-11-15T09:54:15;98582.40;;;9.93;55.68
69219;BME280;56232;53.384;-2.732;2022-11-15T09:56:38;98583.31;;;10.04;55.61
69219;BME280;56232;53.384;-2.732;2022-11-15T09:59:15;98581.54;;;9.03;55.75
69219;BME280;56232;53.384;-2.732;2022-11-15T10:01:36;98583.08;;;10.22;55.59
69219;BME280;56232;53.384;-2.732;2022-11-15T10:03:55;98583.02;;;10.20;55.63
69219;BME280;56232;53.384;-2.732;2022-11-15T10:06:23;98573.11;;;10.06;55.86
69219;BME280;56232;53.384;-2.732;2022-11-15T10:08:51;98572.78;;;9.40;55.82
69219;BME280;56232;53.384;-2.732;2022-11-15T10:11:12;98574.90;;;9.95;55.96
69219;BME280;56232;53.384;-2.732;2022-11-15T10:13:39;98572.85;;;8.72;55.98
69219;BME280;56232;53.384;-2.732;2022-11-15T10:16:07;98572.07;;;8.69;56.17
69219;BME280;56232;53.384;-2.732;2022-11-15T10:18:30;98573.31;;;8.73;56.49
69219;BME280;56232;53.384;-2.732;2022-11-15T10:20:58;98562.23;;;9.90;56.27
69219;BME280;56232;53.384;-2.732;2022-11-15T10:23:20;98560.26;;;10.07;56.49
69219;BME280;56232;53.384;-2.732;2022-11-15T10:25:44;98562.90;;;10.25;56.23
69219;BME280;56232;53.384;-2.732;2022-11-15T10:28:14;98560.95;;;10.41;55.97
69219;BME280;56232;53.384;-2.732;2022-11-15T10:30:37;98562.94;;;9.40;55.96
69219;BME280;56232;53.384;-2.732;2022-11-15T10:35:29;98551.83;;;9.45;55.82
69219;BME280;56232;53.384;-2.732;2022-11-15T10:40:20;98548.05;;;9.94;56.19
69219;BME280;56232;53.384;-2.732;2022-11-15T10:42:43;98549.07;;;9.51;56.37
69219;BME280;56232;53.384;-2.732;2022-11-15T10:47:35;98549.37;;;9.62;56.07
69219;BME280;56232;53.384;-2.732;2022-11-15T10:50:04;98550.82;;;9.70;56.47
69219;BME280;56232;53.384;-2.732;2022-11-15T10:52:26;98557.16;;;9.81;56.61
69219;BME280;56232;53.384;-2.732;2022-11-15T10:54:55;98555.75;;;9.85;56.51
69219;BME280;56232;53.384;-2.732;2022-11-15T10:57:23;98550.73;;;9.94;56.47
69219;BME280;56232;53.384;-2.732;2022-11-15T10:59:46;98549.84;;;9.44;56.51
69219;BME280;56232;53.384;-2.732;2022-11-15T11:07:00;98549.59;;;10.46;56.06
69219;BME280;56232;53.384;-2.732;2022-11-15T11:09:30;98541.53;;;10.50;55.84
69219;BME280;56232;53.384;-2.732;2022-11-15T11:11:52;98540.98;;;10.53;55.77
69219;BME280;56232;53.384;-2.732;2022-11-15T11:14:20;98537.93;;;10.51;55.48
69219;BME280;56232;53.384;-2.732;2022-11-15T11:16:44;98531.40;;;10.43;55.36
69219;BME280;56232;53.384;-2.732;2022-11-15T11:19:29;98521.74;;;9.80;55.60
69219;BME280;56232;53.384;-2.732;2022-11-15T11:21:40;98520.76;;;9.84;55.43
69219;BME280;56232;53.384;-2.732;2022-11-15T11:24:04;98517.59;;;10.67;55.28
69219;BME280;56232;53.384;-2.732;2022-11-15T11:26:37;98510.19;;;10.13;55.37
69219;BME280;56232;53.384;-2.732;2022-11-15T11:28:56;98510.83;;;10.29;55.21
69219;BME280;56232;53.384;-2.732;2022-11-15T11:31:23;98496.17;;;10.83;54.96
69219;BME280;56232;53.384;-2.732;2022-11-15T11:33:46;98488.38;;;10.92;54.98
69219;BME280;56232;53.384;-2.732;2022-11-15T11:36:18;98499.17;;;10.81;54.90
69219;BME280;56232;53.384;-2.732;2022-11-15T11:38:42;98505.56;;;10.80;54.96
69219;BME280;56232;53.384;-2.732;2022-11-15T11:41:05;98509.25;;;9.87;54.79
69219;BME280;56232;53.384;-2.732;2022-11-15T11:43:30;98510.64;;;10.27;54.21
69219;BME280;56232;53.384;-2.732;2022-11-15T11:46:03;98505.84;;;10.74;54.29
69219;BME280;56232;53.384;-2.732;2022-11-15T11:48:23;98506.13;;;10.84;54.48
69219;BME280;56232;53.384;-2.732;2022-11-15T11:50:42;98508.47;;;11.07;54.68
69219;BME280;56232;53.384;-2.732;2022-11-15T11:53:12;98476.91;;;10.78;54.14
69219;BME280;56232;53.384;-2.732;2022-11-15T11:55:41;98505.99;;;10.24;53.93
69219;BME280;56232;53.384;-2.732;2022-11-15T11:58:04;98524.84;;;11.25;54.25
69219;BME280;56232;53.384;-2.732;2022-11-15T12:00:25;98527.39;;;10.54;54.07
69219;BME280;56232;53.384;-2.732;2022-11-15T12:03:00;98530.27;;;10.44;53.91
69219;BME280;56232;53.384;-2.732;2022-11-15T12:05:20;98542.01;;;10.79;53.86
69219;BME280;56232;53.384;-2.732;2022-11-15T12:07:42;98544.80;;;9.70;53.46
69219;BME280;56232;53.384;-2.732;2022-11-15T12:10:15;98548.86;;;10.03;53.69
69219;BME280;56232;53.384;-2.732;2022-11-15T12:12:38;98531.23;;;9.77;53.96
69219;BME280;56232;53.384;-2.732;2022-11-15T12:15:02;98535.81;;;9.85;53.84
69219;BME280;56232;53.384;-2.732;2022-11-15T12:17:24;98540.69;;;10.21;53.68
69219;BME280;56232;53.384;-2.732;2022-11-15T12:19:48;98530.12;;;10.19;53.99
69219;BME280;56232;53.384;-2.732;2022-11-15T12:22:20;98522.72;;;10.28;53.94
69219;BME280;56232;53.384;-2.732;2022-11-15T12:24:43;98517.04;;;10.60;53.76
69219;BME280;56232;53.384;-2.732;2022-11-15T12:27:13;98516.14;;;9.58;53.99
69219;BME280;56232;53.384;-2.732;2022-11-15T12:29:35;98513.29;;;10.88;53.59
69219;BME280;56232;53.384;-2.732;2022-11-15T12:31:57;98507.70;;;10.92;53.22
69219;BME280;56232;53.384;-2.732;2022-11-15T12:36:49;98508.51;;;11.47;52.79
69219;BME280;56232;53.384;-2.732;2022-11-15T12:39:15;98502.60;;;10.97;52.88
69219;BME280;56232;53.384;-2.732;2022-11-15T12:41:41;98501.20;;;11.04;52.54
69219;BME280;56232;53.384;-2.732;2022-11-15T12:44:10;98504.45;;;11.17;52.89
69219;BME280;56232;53.384;-2.732;2022-11-15T12:48:57;98496.55;;;11.72;52.14
69219;BME280;56232;53.384;-2.732;2022-11-15T12:53:47;98504.23;;;11.40;52.23
69219;BME280;56232;53.384;-2.732;2022-11-15T12:56:20;98500.38;;;11.23;52.20
69219;BME280;56232;53.384;-2.732;2022-11-15T12:58:42;98499.15;;;11.16;52.05
69219;BME280;56232;53.384;-2.732;2022-11-15T13:01:06;98489.40;;;11.08;52.07
69219;BME280;56232;53.384;-2.732;2022-11-15T13:03:30;98493.06;;;11.61;52.03
69219;BME280;56232;53.384;-2.732;2022-11-15T13:06:04;98500.95;;;11.04;51.69
69219;BME280;56232;53.384;-2.732;2022-11-15T13:10:46;98517.24;;;11.31;52.21
69219;BME280;56232;53.384;-2.732;2022-11-15T13:20:30;98521.51;;;11.90;52.31
69219;BME280;56232;53.384;-2.732;2022-11-15T13:23:02;98518.29;;;12.35;51.80
69219;BME280;56232;53.384;-2.732;2022-11-15T13:25:35;98515.94;;;11.44;51.30
69219;BME280;56232;53.384;-2.732;2022-11-15T13:27:47;98524.59;;;12.33;51.17
69219;BME280;56232;53.384;-2.732;2022-11-15T13:30:16;98531.13;;;11.87;51.39